createdAt,value
2023-04-17T00:01:04.941Z,12.20
2023-04-17T00:03:32.333Z,12.20
2023-04-17T00:05:59.441Z,12.30
2023-04-17T00:08:26.261Z,12.30
2023-04-17T00:11:04.142Z,12.30
2023-04-17T00:13:33.849Z,12.30
2023-04-17T00:16:00.844Z,12.30
2023-04-17T00:18:27.748Z,12.30
2023-04-17T00:20:56.794Z,12.30
2023-04-17T00:23:23.856Z,12.20
2023-04-17T00:25:50.982Z,12.20
2023-04-17T00:28:18.369Z,12.20
2023-04-17T00:30:47.779Z,12.20
2023-04-17T00:33:15.089Z,12.20
2023-04-17T00:35:48.119Z,12.20
2023-04-17T00:38:16.321Z,12.30
2023-04-17T00:40:48.240Z,12.20
2023-04-17T00:43:15.477Z,12.20
2023-04-17T00:45:42.504Z,12.20
2023-04-17T00:48:10.844Z,12.20
2023-04-17T00:50:38.372Z,12.20
2023-04-17T00:53:05.742Z,12.20
2023-04-17T00:55:34.880Z,12.20
2023-04-17T00:58:02.324Z,12.20
2023-04-17T01:00:29.137Z,12.20
2023-04-17T01:02:58.183Z,12.20
2023-04-17T01:05:28.566Z,12.30
2023-04-17T01:07:57.533Z,12.20
2023-04-17T01:10:24.404Z,12.20
2023-04-17T01:13:05.336Z,12.30
2023-04-17T01:15:34.079Z,12.30
2023-04-17T01:18:01.254Z,12.30
2023-04-17T01:20:32.029Z,12.20
2023-04-17T01:23:00.150Z,12.20
2023-04-17T01:25:28.216Z,12.10
2023-04-17T01:27:56.537Z,12.10
2023-04-17T01:30:23.988Z,12.10
2023-04-17T01:32:56.409Z,12.10
2023-04-17T01:35:23.437Z,12.00
2023-04-17T01:37:50.358Z,12.00
2023-04-17T01:40:17.393Z,12.10
2023-04-17T01:42:45.378Z,12.00
2023-04-17T01:45:12.446Z,12.00
2023-04-17T01:47:40.717Z,12.00
2023-04-17T01:50:09.274Z,12.00
2023-04-17T01:52:36.940Z,12.00
2023-04-17T01:55:04.299Z,12.00
2023-04-17T01:57:33.262Z,12.00
2023-04-17T02:00:00.584Z,12.00
2023-04-17T02:02:27.659Z,12.00
2023-04-17T02:04:54.862Z,12.00
2023-04-17T02:07:21.958Z,11.90
2023-04-17T02:09:48.919Z,11.90
2023-04-17T02:12:17.795Z,11.90
2023-04-17T02:14:44.723Z,11.90
2023-04-17T02:17:11.593Z,11.90
2023-04-17T02:19:38.711Z,12.00
2023-04-17T02:22:05.637Z,12.00
2023-04-17T02:24:32.617Z,12.00
2023-04-17T02:27:00.892Z,11.90
2023-04-17T02:29:27.793Z,11.90
2023-04-17T02:31:56.053Z,11.90
2023-04-17T02:34:22.937Z,11.90
2023-04-17T02:36:55.098Z,11.90
2023-04-17T02:39:23.713Z,11.90
2023-04-17T02:41:50.922Z,11.90
2023-04-17T02:44:18.462Z,11.90
2023-04-17T02:46:45.483Z,11.90
2023-04-17T02:49:13.503Z,11.90
2023-04-17T02:51:40.719Z,11.90
2023-04-17T02:54:07.663Z,11.90
2023-04-17T02:56:34.580Z,11.90
2023-04-17T02:59:01.530Z,11.90
2023-04-17T03:01:29.936Z,11.90
2023-04-17T03:03:57.377Z,11.90
2023-04-17T03:06:24.519Z,11.90
2023-04-17T03:08:51.532Z,11.90
2023-04-17T03:11:18.628Z,11.80
2023-04-17T03:13:45.625Z,11.80
2023-04-17T03:16:14.319Z,11.90
2023-04-17T03:18:43.027Z,11.80
2023-04-17T03:21:10.044Z,11.90
2023-04-17T03:23:37.219Z,11.90
2023-04-17T03:26:06.038Z,11.90
2023-04-17T03:28:33.755Z,12.00
2023-04-17T03:31:01.945Z,11.90
2023-04-17T03:33:30.690Z,11.90
2023-04-17T03:35:58.546Z,11.90
2023-04-17T03:38:26.238Z,11.90
2023-04-17T03:40:56.532Z,11.90
2023-04-17T03:43:25.312Z,11.90
2023-04-17T03:45:52.205Z,11.90
2023-04-17T03:48:19.277Z,11.90
2023-04-17T03:50:48.423Z,11.90
2023-04-17T03:53:15.938Z,11.90
2023-04-17T03:55:42.859Z,11.80
2023-04-17T03:58:16.498Z,11.80
2023-04-17T04:00:45.741Z,11.80
2023-04-17T04:03:14.018Z,11.80
2023-04-17T04:05:42.296Z,11.80
2023-04-17T04:08:10.934Z,11.90
2023-04-17T04:10:50.997Z,11.90
2023-04-17T04:13:23.100Z,11.90
2023-04-17T04:15:55.336Z,11.90
2023-04-17T04:18:25.385Z,11.90
2023-04-17T04:20:52.953Z,11.90
2023-04-17T04:23:28.184Z,11.90
2023-04-17T04:25:57.316Z,11.80
2023-04-17T04:28:32.189Z,11.80
2023-04-17T04:31:00.267Z,11.80
2023-04-17T04:33:31.467Z,11.80
2023-04-17T04:36:01.390Z,11.80
2023-04-17T04:38:32.707Z,11.80
2023-04-17T04:41:10.649Z,11.80
2023-04-17T04:43:40.714Z,11.80
2023-04-17T04:46:10.596Z,11.90
2023-04-17T04:48:43.006Z,11.90
2023-04-17T04:51:10.481Z,11.80
2023-04-17T04:53:39.055Z,11.80
2023-04-17T04:56:06.417Z,11.80
2023-04-17T04:58:34.834Z,11.90
2023-04-17T05:01:04.220Z,11.90
2023-04-17T05:03:37.470Z,11.90
2023-04-17T05:06:06.104Z,11.90
2023-04-17T05:08:45.176Z,11.80
2023-04-17T05:11:15.831Z,11.90
2023-04-17T05:13:43.249Z,11.90
2023-04-17T05:16:18.042Z,11.90
2023-04-17T05:18:48.065Z,11.90
2023-04-17T05:21:18.546Z,11.90
2023-04-17T05:23:48.859Z,11.90
2023-04-17T05:26:15.740Z,11.90
2023-04-17T05:28:45.365Z,11.90
2023-04-17T05:31:15.995Z,11.90
2023-04-17T05:33:43.419Z,12.00
2023-04-17T05:36:10.628Z,12.00
2023-04-17T05:38:40.010Z,12.00
2023-04-17T05:41:09.062Z,12.00
2023-04-17T05:43:37.312Z,12.00
2023-04-17T05:46:04.769Z,12.00
2023-04-17T05:48:32.335Z,12.10
2023-04-17T05:50:59.208Z,12.10
2023-04-17T05:53:26.553Z,12.10
2023-04-17T05:55:57.251Z,12.10
2023-04-17T05:58:24.905Z,12.10
2023-04-17T06:00:56.063Z,12.10
2023-04-17T06:03:24.354Z,12.10
2023-04-17T06:05:58.306Z,12.10
2023-04-17T06:08:25.531Z,12.10
2023-04-17T06:10:52.744Z,12.10
2023-04-17T06:13:19.996Z,12.10
2023-04-17T06:15:51.409Z,12.10
2023-04-17T06:18:18.941Z,12.10
2023-04-17T06:20:46.389Z,12.20
2023-04-17T06:23:13.468Z,12.20
2023-04-17T06:25:40.613Z,12.20
2023-04-17T06:28:07.420Z,12.20
2023-04-17T06:30:35.742Z,12.20
2023-04-17T06:33:04.838Z,12.20
2023-04-17T06:35:36.921Z,12.20
2023-04-17T06:38:20.543Z,12.20
2023-04-17T06:40:48.121Z,12.20
2023-04-17T06:43:18.428Z,12.20
2023-04-17T06:45:45.371Z,12.30
2023-04-17T06:48:12.256Z,12.30
2023-04-17T06:50:39.152Z,12.30
2023-04-17T06:53:06.978Z,12.40
2023-04-17T06:55:33.932Z,12.40
2023-04-17T06:58:00.995Z,12.50
2023-04-17T07:00:27.923Z,12.50
2023-04-17T07:02:54.941Z,12.40
2023-04-17T07:05:22.068Z,12.40
2023-04-17T07:07:48.822Z,12.40
2023-04-17T07:10:16.048Z,12.40
2023-04-17T07:12:43.032Z,12.40
2023-04-17T07:15:10.408Z,12.40
2023-04-17T07:17:37.711Z,12.40
2023-04-17T07:20:08.288Z,12.40
2023-04-17T07:22:35.132Z,12.50
2023-04-17T07:25:02.138Z,12.50
2023-04-17T07:27:29.127Z,12.50
2023-04-17T07:29:56.454Z,12.40
2023-04-17T07:32:28.026Z,12.50
2023-04-17T07:34:54.971Z,12.50
2023-04-17T07:37:21.754Z,12.50
2023-04-17T07:39:50.335Z,12.60
2023-04-17T07:42:17.338Z,12.50
2023-04-17T07:44:44.419Z,12.50
2023-04-17T07:47:11.597Z,12.50
2023-04-17T07:49:40.409Z,12.50
2023-04-17T07:52:08.305Z,12.50
2023-04-17T07:54:35.596Z,12.60
2023-04-17T07:57:03.668Z,12.70
2023-04-17T07:59:30.874Z,12.80
2023-04-17T08:01:57.906Z,12.80
2023-04-17T08:04:26.188Z,12.80
2023-04-17T08:06:53.534Z,12.90
2023-04-17T08:09:23.207Z,12.90
2023-04-17T08:11:57.033Z,13.00
2023-04-17T08:14:25.464Z,13.00
2023-04-17T08:16:52.721Z,13.00
2023-04-17T08:19:19.701Z,13.00
2023-04-17T08:21:50.675Z,13.00
2023-04-17T08:24:19.734Z,13.00
2023-04-17T08:26:47.810Z,13.10
2023-04-17T08:29:15.116Z,13.20
2023-04-17T08:31:42.526Z,13.30
2023-04-17T08:34:14.955Z,13.40
2023-04-17T08:36:43.100Z,13.40
2023-04-17T08:39:14.784Z,13.50
2023-04-17T08:41:51.058Z,13.60
2023-04-17T08:44:21.292Z,13.80
2023-04-17T08:46:49.523Z,13.90
2023-04-17T08:49:16.572Z,14.00
2023-04-17T08:51:43.417Z,14.10
2023-04-17T08:54:12.711Z,14.30
2023-04-17T08:56:39.552Z,14.40
2023-04-17T08:59:06.536Z,14.40
2023-04-17T09:01:34.772Z,14.40
2023-04-17T09:04:01.988Z,14.30
2023-04-17T09:06:29.719Z,14.30
2023-04-17T09:08:57.680Z,14.30
2023-04-17T09:11:25.383Z,14.20
2023-04-17T09:13:53.000Z,14.20
2023-04-17T09:16:20.247Z,14.10
2023-04-17T09:18:48.017Z,14.00
2023-04-17T09:21:19.790Z,14.10
2023-04-17T09:23:55.562Z,14.20
2023-04-17T09:26:27.535Z,14.30
2023-04-17T09:29:11.248Z,14.40
2023-04-17T09:31:43.206Z,14.40
2023-04-17T09:34:14.660Z,14.50
2023-04-17T09:36:43.524Z,14.60
2023-04-17T09:39:26.561Z,14.60
2023-04-17T09:42:04.450Z,14.50
2023-04-17T09:44:31.724Z,14.50
2023-04-17T09:47:01.406Z,14.50
2023-04-17T09:49:44.719Z,14.60
2023-04-17T09:52:13.931Z,14.70
2023-04-17T09:54:42.871Z,14.80
2023-04-17T09:57:10.875Z,14.80
2023-04-17T09:59:45.737Z,14.80
2023-04-17T10:02:15.134Z,14.90
2023-04-17T10:04:43.907Z,14.90
2023-04-17T10:07:12.720Z,15.00
2023-04-17T10:09:41.859Z,15.00
2023-04-17T10:12:16.874Z,15.10
2023-04-17T10:14:48.286Z,15.10
2023-04-17T10:17:31.529Z,15.10
2023-04-17T10:20:20.185Z,15.10
2023-04-17T10:22:54.848Z,15.20
2023-04-17T10:25:27.338Z,15.30
2023-04-17T10:28:01.293Z,15.40
2023-04-17T10:30:49.912Z,15.60
2023-04-17T10:33:20.002Z,15.90
2023-04-17T10:35:47.397Z,16.10
2023-04-17T10:38:16.409Z,16.30
2023-04-17T10:40:44.759Z,16.60
2023-04-17T10:43:17.644Z,16.80
2023-04-17T10:46:04.058Z,16.90
2023-04-17T10:48:49.682Z,17.10
2023-04-17T10:51:32.168Z,17.30
2023-04-17T10:54:06.459Z,17.60
2023-04-17T10:56:48.596Z,17.80
2023-04-17T10:59:20.734Z,17.90
2023-04-17T11:01:47.750Z,18.00
2023-04-17T11:04:21.414Z,18.00
2023-04-17T11:06:48.551Z,18.00
2023-04-17T11:09:16.211Z,18.20
2023-04-17T11:11:45.237Z,18.20
2023-04-17T11:14:20.720Z,18.10
2023-04-17T11:16:49.794Z,18.00
2023-04-17T11:19:24.566Z,17.90
2023-04-17T11:21:53.870Z,17.90
2023-04-17T11:24:26.930Z,17.90
2023-04-17T11:26:54.736Z,17.90
2023-04-17T11:29:23.602Z,17.90
2023-04-17T11:31:52.732Z,17.90
2023-04-17T11:34:20.494Z,17.90
2023-04-17T11:37:00.709Z,18.00
2023-04-17T11:39:34.442Z,18.10
2023-04-17T11:42:05.346Z,18.20
2023-04-17T11:44:32.614Z,18.20
2023-04-17T11:46:59.585Z,18.30
2023-04-17T11:49:37.499Z,18.50
2023-04-17T11:52:05.982Z,18.50
2023-04-17T11:54:37.797Z,18.50
2023-04-17T11:57:07.733Z,18.50
2023-04-17T11:59:37.370Z,18.70
2023-04-17T12:02:07.349Z,18.80
2023-04-17T12:04:36.395Z,19.00
2023-04-17T12:07:08.010Z,19.10
2023-04-17T12:09:35.925Z,19.10
2023-04-17T12:12:07.195Z,19.10
2023-04-17T14:40:10.454Z,19.60
2023-04-17T14:42:53.540Z,19.70
2023-04-17T14:45:26.654Z,20.00
2023-04-17T14:47:56.097Z,20.30
2023-04-17T14:50:26.596Z,20.60
2023-04-17T14:52:56.388Z,20.60
2023-04-17T14:55:24.845Z,20.60
2023-04-17T14:57:53.255Z,20.50
2023-04-17T15:00:21.708Z,20.50
2023-04-17T15:02:50.082Z,20.40
2023-04-17T15:05:21.569Z,20.40
2023-04-17T15:07:52.190Z,20.40
2023-04-17T15:10:20.880Z,20.40
2023-04-17T15:12:48.429Z,20.40
2023-04-17T15:15:16.515Z,20.30
2023-04-17T15:17:45.878Z,20.20
2023-04-17T15:20:15.725Z,20.10
2023-04-17T15:22:45.936Z,19.90
2023-04-17T15:25:13.362Z,19.70
2023-04-17T15:27:41.164Z,19.60
2023-04-17T15:30:09.850Z,19.70
2023-04-17T15:32:37.583Z,19.80
2023-04-17T15:35:06.284Z,19.90
2023-04-17T15:37:35.813Z,20.10
2023-04-17T15:40:05.150Z,20.30
2023-04-17T15:42:33.969Z,20.60
2023-04-17T15:45:02.937Z,20.80
2023-04-17T15:47:33.747Z,21.00
2023-04-17T15:50:01.698Z,20.80
2023-04-17T15:52:29.032Z,20.60
2023-04-17T15:55:00.686Z,20.40
2023-04-17T15:57:28.463Z,20.20
2023-04-17T15:59:56.230Z,20.00
2023-04-17T16:02:23.858Z,19.80
2023-04-17T16:04:52.286Z,19.60
2023-04-17T16:07:20.514Z,19.50
2023-04-17T16:09:48.462Z,19.40
2023-04-17T16:12:15.934Z,19.30
2023-04-17T16:14:49.345Z,19.10
2023-04-17T16:17:24.064Z,19.00
2023-04-17T16:19:54.573Z,18.90
2023-04-17T16:22:22.082Z,18.80
2023-04-17T16:24:49.399Z,18.80
2023-04-17T16:27:17.446Z,18.90
2023-04-17T16:29:46.980Z,19.10
2023-04-17T16:32:15.162Z,19.30
2023-04-17T16:34:42.601Z,19.90
2023-04-17T16:37:10.940Z,20.80
2023-04-17T16:39:46.182Z,21.70
2023-04-17T16:42:13.597Z,22.10
2023-04-17T16:44:41.340Z,22.60
2023-04-17T16:47:13.989Z,23.20
2023-04-17T16:49:43.083Z,23.90
2023-04-17T16:52:13.342Z,24.30
2023-04-17T16:54:41.103Z,24.30
2023-04-17T16:57:09.114Z,24.10
2023-04-17T16:59:37.012Z,23.80
2023-04-17T17:02:05.153Z,23.70
2023-04-17T17:04:35.478Z,23.60
2023-04-17T17:07:03.258Z,23.50
2023-04-17T17:09:31.538Z,23.40
2023-04-17T17:11:58.428Z,23.20
2023-04-17T17:14:25.847Z,23.10
2023-04-17T17:16:53.331Z,23.10
2023-04-17T17:19:21.090Z,22.90
2023-04-17T17:21:48.199Z,22.80
2023-04-17T17:24:15.159Z,22.60
2023-04-17T17:26:42.131Z,22.50
2023-04-17T17:29:09.145Z,22.40
2023-04-17T17:31:37.512Z,22.50
2023-04-17T17:34:16.709Z,22.50
2023-04-17T17:36:52.127Z,22.30
2023-04-17T17:39:21.212Z,22.10
2023-04-17T17:41:48.684Z,22.00
2023-04-17T17:44:15.887Z,21.70
2023-04-17T17:46:43.576Z,21.40
2023-04-17T17:49:11.066Z,21.00
2023-04-17T17:51:38.178Z,20.70
2023-04-17T17:54:05.270Z,20.40
2023-04-17T17:56:35.875Z,20.10
2023-04-17T17:59:03.045Z,19.70
2023-04-17T18:01:30.436Z,19.40
2023-04-17T18:04:01.907Z,19.20
2023-04-17T18:06:29.179Z,19.00
2023-04-17T18:08:57.923Z,18.90
2023-04-17T18:11:25.318Z,18.70
2023-04-17T18:13:52.410Z,18.50
2023-04-17T18:16:20.326Z,18.40
2023-04-17T18:18:47.620Z,18.20
2023-04-17T18:21:15.856Z,18.10
2023-04-17T18:23:43.111Z,17.90
2023-04-17T18:26:13.036Z,17.80
2023-04-17T18:28:44.545Z,17.70
2023-04-17T18:31:12.574Z,17.50
2023-04-17T18:33:40.018Z,17.40
2023-04-17T18:36:07.373Z,17.30
2023-04-17T18:38:35.077Z,17.20
2023-04-17T18:41:02.639Z,17.10
2023-04-17T18:43:29.570Z,17.00
2023-04-17T18:45:56.604Z,16.90
2023-04-17T18:48:25.123Z,16.90
2023-04-17T18:50:52.325Z,16.80
2023-04-17T18:53:19.222Z,16.80
2023-04-17T18:55:46.407Z,16.70
2023-04-17T18:58:13.503Z,16.70
2023-04-17T19:00:40.676Z,16.60
2023-04-17T19:03:07.783Z,16.50
2023-04-17T19:05:34.908Z,16.50
2023-04-17T19:08:01.931Z,16.40
2023-04-17T19:10:30.048Z,16.40
2023-04-17T19:12:56.941Z,16.30
2023-04-17T19:15:27.071Z,16.20
2023-04-17T19:17:54.135Z,16.10
2023-04-17T19:20:22.793Z,16.10
2023-04-17T19:22:49.727Z,16.00
2023-04-17T19:25:16.835Z,15.90
2023-04-17T19:27:43.911Z,15.90
2023-04-17T19:30:11.708Z,15.90
2023-04-17T19:32:38.857Z,15.80
2023-04-17T19:35:06.880Z,15.80
2023-04-17T19:37:37.294Z,15.70
2023-04-17T19:40:14.239Z,15.60
2023-04-17T19:42:48.805Z,15.60
2023-04-17T19:45:16.026Z,15.50
2023-04-17T19:47:43.082Z,15.50
2023-04-17T19:50:10.736Z,15.50
2023-04-17T19:52:43.248Z,15.40
2023-04-17T19:55:10.352Z,15.40
2023-04-17T19:57:39.541Z,15.30
2023-04-17T20:00:14.666Z,15.30
2023-04-17T20:02:43.892Z,15.20
2023-04-17T20:05:10.835Z,15.20
2023-04-17T20:07:39.813Z,15.10
2023-04-17T20:10:17.049Z,15.10
2023-04-17T20:12:44.029Z,15.00
2023-04-17T20:15:22.227Z,15.00
2023-04-17T20:17:49.574Z,14.90
2023-04-17T20:20:17.274Z,14.80
2023-04-17T20:22:44.346Z,14.80
2023-04-17T20:25:11.246Z,14.80
2023-04-17T20:27:38.363Z,14.80
2023-04-17T20:30:05.836Z,14.70
2023-04-17T20:32:32.849Z,14.70
2023-04-17T20:35:00.392Z,14.60
2023-04-17T20:37:27.269Z,14.60
2023-04-17T20:39:54.757Z,14.60
2023-04-17T20:42:21.671Z,14.60
2023-04-17T20:44:48.532Z,14.50
2023-04-17T20:47:43.519Z,14.50
2023-04-17T20:50:21.420Z,14.50
2023-04-17T20:52:48.994Z,14.40
2023-04-17T20:55:18.280Z,14.40
2023-04-17T20:57:45.205Z,14.40
2023-04-17T21:00:12.526Z,14.30
2023-04-17T21:02:39.597Z,14.30
2023-04-17T21:05:07.989Z,14.30
2023-04-17T21:07:35.994Z,14.20
2023-04-17T21:10:03.039Z,14.20
2023-04-17T21:12:32.721Z,14.10
2023-04-17T21:14:59.727Z,14.10
2023-04-17T21:17:26.810Z,14.10
2023-04-17T21:19:56.006Z,14.10
2023-04-17T21:22:23.287Z,14.00
2023-04-17T21:24:50.184Z,14.00
2023-04-17T21:27:17.112Z,14.00
2023-04-17T21:29:44.019Z,13.90
2023-04-17T21:32:10.968Z,13.90
2023-04-17T21:34:37.877Z,13.80
2023-04-17T21:37:05.108Z,13.80
2023-04-17T21:39:33.304Z,13.70
2023-04-17T21:42:01.994Z,13.70
2023-04-17T21:44:29.263Z,13.60
2023-04-17T21:46:56.340Z,13.60
2023-04-17T21:49:24.014Z,13.50
2023-04-17T21:51:51.002Z,13.50
2023-04-17T21:54:17.975Z,13.50
2023-04-17T21:56:44.828Z,13.50
2023-04-17T21:59:11.939Z,13.50
2023-04-17T22:01:38.876Z,13.40
2023-04-17T22:04:05.883Z,13.40
2023-04-17T22:06:36.919Z,13.40
2023-04-17T22:09:04.975Z,13.40
2023-04-17T22:11:32.720Z,13.30
2023-04-17T22:13:59.748Z,13.30
2023-04-17T22:16:26.719Z,13.30
2023-04-17T22:18:54.316Z,13.20
2023-04-17T22:21:21.559Z,13.20
2023-04-17T22:23:48.649Z,13.20
2023-04-17T22:26:15.720Z,13.20
2023-04-17T22:28:42.534Z,13.10
2023-04-17T22:31:09.957Z,13.10
2023-04-17T22:33:36.862Z,13.10
2023-04-17T22:36:04.186Z,13.00
2023-04-17T22:38:31.023Z,13.00
2023-04-17T22:40:57.895Z,13.00
2023-04-17T22:43:24.853Z,13.00
2023-04-17T22:45:51.759Z,12.90
2023-04-17T22:48:18.833Z,12.90
2023-04-17T22:50:45.771Z,12.90
2023-04-17T22:53:12.731Z,12.90
2023-04-17T22:55:42.090Z,12.80
2023-04-17T22:58:08.946Z,12.80
2023-04-17T23:00:36.511Z,12.80
2023-04-17T23:03:03.525Z,12.80
2023-04-17T23:05:30.682Z,12.70
2023-04-17T23:07:57.575Z,12.70
2023-04-17T23:10:24.465Z,12.70
2023-04-17T23:12:51.467Z,12.60
2023-04-17T23:15:18.296Z,12.60
2023-04-17T23:17:45.681Z,12.60
2023-04-17T23:20:13.144Z,12.50
2023-04-17T23:22:39.984Z,12.50
2023-04-17T23:25:07.485Z,12.50
2023-04-17T23:27:34.681Z,12.40
2023-04-17T23:30:01.508Z,12.40
2023-04-17T23:32:28.391Z,12.40
2023-04-17T23:34:55.285Z,12.40
2023-04-17T23:37:22.372Z,12.40
2023-04-17T23:39:49.395Z,12.30
2023-04-17T23:42:16.381Z,12.30
2023-04-17T23:44:43.407Z,12.30
2023-04-17T23:47:11.472Z,12.30
2023-04-17T23:49:38.925Z,12.20
2023-04-17T23:52:05.993Z,12.20
2023-04-17T23:54:33.029Z,12.20
2023-04-17T23:56:59.998Z,12.20
2023-04-17T23:59:26.803Z,12.10
